Time;durP1;ratioP1;P1;durP2;ratioP2;P2;SDS_P1;SDS_P2;PMS_P1;PMS_P2;Temp;Humidity;BMP_temperature;BMP_pressure;BME280_temperature;BME280_humidity;BME280_pressure;Samples;Min_cycle;Max_cycle;Signal;HPM_P1;HPM_P2
2023/09/16 00:01:34;;;;;;;6.75;6.03;;;;;;;;;;5006648;28;98256;-70
2023/09/16 00:04:01;;;;;;;8.35;6.15;;;;;;;;;;5009553;28;99497;-70
2023/09/16 00:06:28;;;;;;;8.20;6.20;;;;;;;;;;4998445;28;99078;-71
2023/09/16 00:08:55;;;;;;;8.95;6.47;;;;;;;;;;5007394;28;99390;-70
2023/09/16 00:11:22;;;;;;;6.28;5.75;;;;;;;;;;5005897;28;99878;-70
2023/09/16 00:13:48;;;;;;;8.05;6.35;;;;;;;;;;5006907;28;98503;-69
2023/09/16 00:16:15;;;;;;;6.35;5.75;;;;;;;;;;5005375;28;98555;-69
2023/09/16 00:18:42;;;;;;;7.38;5.70;;;;;;;;;;5006098;28;99991;-69
2023/09/16 00:21:10;;;;;;;6.75;6.18;;;;;;;;;;5006497;28;98201;-70
2023/09/16 00:23:37;;;;;;;6.75;6.05;;;;;;;;;;5009666;28;98537;-70
2023/09/16 00:26:03;;;;;;;6.63;5.95;;;;;;;;;;5006000;28;98236;-69
2023/09/16 00:28:35;;;;;;;6.90;6.30;;;;;;;;;;5006565;28;99448;-70
2023/09/16 00:31:02;;;;;;;6.43;5.93;;;;;;;;;;5006689;28;98773;-69
2023/09/16 00:33:29;;;;;;;6.93;5.97;;;;;;;;;;5006374;28;98804;-69
2023/09/16 00:35:57;;;;;;;7.63;6.18;;;;;;;;;;5006174;28;99506;-70
2023/09/16 00:38:24;;;;;;;6.75;6.15;;;;;;;;;;5004181;28;100743;-70
2023/09/16 00:40:51;;;;;;;6.93;6.05;;;;;;;;;;5005919;28;98762;-71
2023/09/16 00:43:17;;;;;;;6.82;6.07;;;;;;;;;;5005930;28;99170;-70
2023/09/16 00:45:44;;;;;;;6.55;5.85;;;;;;;;;;5007231;28;100136;-71
2023/09/16 00:48:12;;;;;;;9.50;6.30;;;;;;;;;;5006291;28;98621;-70
2023/09/16 00:50:39;;;;;;;11.27;6.07;;;;;;;;;;5004586;28;100867;-70
2023/09/16 00:53:05;;;;;;;8.43;6.00;;;;;;;;;;5005687;28;98389;-70
2023/09/16 00:55:33;;;;;;;12.82;6.13;;;;;;;;;;5006350;28;98363;-70
2023/09/16 00:58:00;;;;;;;7.07;5.88;;;;;;;;;;5004660;28;101197;-70
2023/09/16 01:00:28;;;;;;;10.68;6.20;;;;;;;;;;5005128;28;99055;-70
2023/09/16 01:02:55;;;;;;;6.55;5.72;;;;;;;;;;5003532;28;98659;-71
2023/09/16 01:05:22;;;;;;;15.73;6.40;;;;;;;;;;5005123;28;98914;-70
2023/09/16 01:07:51;;;;;;;6.82;6.10;;;;;;;;;;5004760;28;98303;-70
2023/09/16 01:10:20;;;;;;;8.40;5.93;;;;;;;;;;5005941;28;99969;-70
2023/09/16 01:12:48;;;;;;;6.75;6.13;;;;;;;;;;5004129;28;98265;-71
2023/09/16 01:15:16;;;;;;;9.60;6.13;;;;;;;;;;5003673;28;100276;-70
2023/09/16 01:18:03;;;;;;;9.63;6.82;;;;;;;;;;5004220;28;100174;-70
2023/09/16 01:20:29;;;;;;;7.15;5.72;;;;;;;;;;5005232;28;98564;-69
2023/09/16 01:22:56;;;;;;;10.15;6.90;;;;;;;;;;5005288;28;99013;-70
2023/09/16 01:25:26;;;;;;;6.97;6.28;;;;;;;;;;5005279;28;98502;-70
2023/09/16 01:27:53;;;;;;;6.55;6.05;;;;;;;;;;5006588;28;98552;-69
2023/09/16 01:30:23;;;;;;;8.40;6.25;;;;;;;;;;5011980;28;98756;-70
2023/09/16 01:32:54;;;;;;;6.53;5.72;;;;;;;;;;5009011;28;98874;-69
2023/09/16 01:35:22;;;;;;;7.00;6.35;;;;;;;;;;5009103;28;98499;-71
2023/09/16 01:37:49;;;;;;;7.72;6.90;;;;;;;;;;5008765;28;98958;-68
2023/09/16 01:40:16;;;;;;;9.82;6.15;;;;;;;;;;5009445;28;98149;-70
2023/09/16 01:42:43;;;;;;;9.18;6.25;;;;;;;;;;5006974;28;98744;-70
2023/09/16 01:45:10;;;;;;;6.53;5.85;;;;;;;;;;5007631;28;99996;-70
2023/09/16 01:47:37;;;;;;;7.28;6.10;;;;;;;;;;5009347;28;98221;-70
2023/09/16 01:50:04;;;;;;;6.55;5.95;;;;;;;;;;5008954;28;98617;-71
2023/09/16 01:52:31;;;;;;;6.68;5.90;;;;;;;;;;5011847;28;98822;-70
2023/09/16 01:54:57;;;;;;;6.47;5.97;;;;;;;;;;5008285;28;98445;-70
2023/09/16 01:57:24;;;;;;;6.63;5.90;;;;;;;;;;5008161;28;98788;-69
2023/09/16 01:59:50;;;;;;;6.22;5.80;;;;;;;;;;5007576;28;98213;-71
2023/09/16 02:02:17;;;;;;;6.70;6.10;;;;;;;;;;5007626;28;99486;-70
2023/09/16 02:04:44;;;;;;;6.88;5.90;;;;;;;;;;5007926;28;99924;-70
2023/09/16 02:07:12;;;;;;;6.75;6.10;;;;;;;;;;5007387;28;98505;-70
2023/09/16 02:09:40;;;;;;;6.72;6.13;;;;;;;;;;5006935;28;101127;-70
2023/09/16 02:12:07;;;;;;;6.55;5.95;;;;;;;;;;5007037;28;99907;-70
2023/09/16 02:14:40;;;;;;;6.63;6.05;;;;;;;;;;5012160;28;98190;-69
2023/09/16 02:17:09;;;;;;;7.35;6.55;;;;;;;;;;5008143;28;100025;-69
2023/09/16 02:19:37;;;;;;;7.05;6.30;;;;;;;;;;5006797;28;98518;-70
2023/09/16 02:22:07;;;;;;;8.23;6.03;;;;;;;;;;5007258;28;101118;-69
2023/09/16 02:24:34;;;;;;;7.53;6.05;;;;;;;;;;5007989;28;99185;-69
2023/09/16 02:27:00;;;;;;;6.57;6.00;;;;;;;;;;5006664;28;98389;-70
2023/09/16 02:29:29;;;;;;;9.27;6.65;;;;;;;;;;5008319;28;99592;-70
2023/09/16 02:31:55;;;;;;;6.68;6.15;;;;;;;;;;5005970;28;99975;-70
2023/09/16 02:34:22;;;;;;;6.93;6.22;;;;;;;;;;5010689;28;98433;-70
2023/09/16 02:36:48;;;;;;;7.03;6.40;;;;;;;;;;5007594;28;99162;-69
2023/09/16 02:39:16;;;;;;;9.90;7.43;;;;;;;;;;5005182;28;99845;-71
2023/09/16 02:41:43;;;;;;;8.10;7.30;;;;;;;;;;5008558;28;98644;-70
2023/09/16 02:44:09;;;;;;;8.07;6.80;;;;;;;;;;5006165;28;100293;-70
2023/09/16 02:46:36;;;;;;;8.20;7.00;;;;;;;;;;5007245;28;98120;-70
2023/09/16 02:49:03;;;;;;;7.28;6.40;;;;;;;;;;5006430;28;100736;-70
2023/09/16 02:51:31;;;;;;;7.28;5.88;;;;;;;;;;5006391;28;101169;-69
2023/09/16 02:53:58;;;;;;;7.90;7.03;;;;;;;;;;5006232;28;98753;-70
2023/09/16 02:56:25;;;;;;;7.30;6.50;;;;;;;;;;5011186;28;98339;-69
2023/09/16 02:58:52;;;;;;;7.28;6.57;;;;;;;;;;5008479;28;98236;-69
2023/09/16 03:01:18;;;;;;;8.60;6.65;;;;;;;;;;5008496;28;99091;-71
2023/09/16 03:03:45;;;;;;;7.20;6.50;;;;;;;;;;5006383;28;102335;-70
2023/09/16 03:06:12;;;;;;;7.20;6.60;;;;;;;;;;5005686;28;98405;-69
2023/09/16 03:08:38;;;;;;;7.13;6.28;;;;;;;;;;5005923;28;101729;-70
2023/09/16 03:11:05;;;;;;;6.97;6.32;;;;;;;;;;5007760;28;98789;-69
2023/09/16 03:13:34;;;;;;;8.43;6.70;;;;;;;;;;5005090;28;98357;-69
2023/09/16 03:16:20;;;;;;;9.02;7.13;;;;;;;;;;5007799;28;99690;-69
2023/09/16 03:18:51;;;;;;;7.60;6.82;;;;;;;;;;5010628;28;98797;-69
2023/09/16 03:21:22;;;;;;;13.35;7.00;;;;;;;;;;5005416;28;101439;-69
2023/09/16 03:23:51;;;;;;;11.93;6.93;;;;;;;;;;5006219;28;101670;-69
2023/09/16 03:26:18;;;;;;;17.13;7.18;;;;;;;;;;5006238;28;98675;-69
2023/09/16 03:28:47;;;;;;;10.25;7.47;;;;;;;;;;5005052;28;100369;-70
2023/09/16 03:31:20;;;;;;;11.75;7.10;;;;;;;;;;5006176;28;99304;-69
2023/09/16 03:33:47;;;;;;;8.27;7.20;;;;;;;;;;5005384;28;98583;-71
2023/09/16 03:36:14;;;;;;;7.93;7.13;;;;;;;;;;5005667;28;99610;-69
2023/09/16 03:38:44;;;;;;;7.47;6.78;;;;;;;;;;5006125;28;99890;-70
2023/09/16 03:41:12;;;;;;;8.02;6.43;;;;;;;;;;5008471;28;98342;-70
2023/09/16 03:43:40;;;;;;;11.32;6.82;;;;;;;;;;5006116;28;101221;-71
2023/09/16 03:46:07;;;;;;;8.63;7.22;;;;;;;;;;5006108;28;98859;-70
2023/09/16 03:48:35;;;;;;;10.02;7.00;;;;;;;;;;4985374;28;100656;-70
2023/09/16 03:51:06;;;;;;;7.32;6.70;;;;;;;;;;5001196;28;100031;-70
2023/09/16 03:53:36;;;;;;;7.85;7.15;;;;;;;;;;5005879;28;98388;-71
2023/09/16 03:56:08;;;;;;;7.67;6.93;;;;;;;;;;5006984;28;99015;-70
2023/09/16 03:58:36;;;;;;;9.73;6.40;;;;;;;;;;4996810;28;99315;-70
2023/09/16 04:01:03;;;;;;;7.80;7.07;;;;;;;;;;5005880;28;98471;-70
2023/09/16 04:03:30;;;;;;;7.30;6.65;;;;;;;;;;5009437;28;98512;-70
2023/09/16 04:05:58;;;;;;;8.57;6.53;;;;;;;;;;5007316;28;99241;-71
2023/09/16 04:08:26;;;;;;;8.40;7.32;;;;;;;;;;5006810;28;98467;-70
2023/09/16 04:11:06;;;;;;;10.48;7.07;;;;;;;;;;5004907;28;100102;-70
2023/09/16 04:13:32;;;;;;;10.70;7.05;;;;;;;;;;5005840;28;98666;-70
2023/09/16 04:15:59;;;;;;;8.05;7.22;;;;;;;;;;5008501;28;98365;-70
2023/09/16 04:18:25;;;;;;;12.32;7.68;;;;;;;;;;5006764;28;98705;-71
2023/09/16 04:20:55;;;;;;;8.15;7.45;;;;;;;;;;5005194;28;98980;-71
2023/09/16 04:23:22;;;;;;;10.07;7.18;;;;;;;;;;5003667;28;100242;-69
2023/09/16 04:25:56;;;;;;;8.48;7.45;;;;;;;;;;5007957;28;98284;-70
2023/09/16 04:28:23;;;;;;;11.48;7.95;;;;;;;;;;5003806;28;99363;-70
2023/09/16 04:30:50;;;;;;;12.02;7.70;;;;;;;;;;5004857;28;101731;-70
2023/09/16 04:33:18;;;;;;;10.02;7.85;;;;;;;;;;5001999;28;98303;-70
2023/09/16 04:35:45;;;;;;;8.52;7.63;;;;;;;;;;5005562;28;100982;-70
2023/09/16 04:38:12;;;;;;;10.85;7.97;;;;;;;;;;5004252;28;101851;-70
2023/09/16 04:40:41;;;;;;;8.70;7.88;;;;;;;;;;5005655;28;98273;-69
2023/09/16 04:43:09;;;;;;;9.10;8.15;;;;;;;;;;5004913;28;100236;-70
2023/09/16 04:45:36;;;;;;;8.50;7.70;;;;;;;;;;5007472;28;102196;-71
2023/09/16 04:48:04;;;;;;;10.23;7.95;;;;;;;;;;5006185;28;98437;-70
2023/09/16 04:50:31;;;;;;;12.35;7.70;;;;;;;;;;5004321;28;99857;-70
2023/09/16 04:53:01;;;;;;;10.73;8.15;;;;;;;;;;5004480;28;98289;-70
2023/09/16 04:55:28;;;;;;;10.43;7.78;;;;;;;;;;5005016;28;99014;-70
2023/09/16 04:57:54;;;;;;;8.45;7.65;;;;;;;;;;5006178;28;98877;-70
2023/09/16 05:00:23;;;;;;;11.68;8.35;;;;;;;;;;5005311;28;98616;-70
2023/09/16 05:02:51;;;;;;;11.77;8.25;;;;;;;;;;5005611;28;100859;-70
2023/09/16 05:05:17;;;;;;;9.90;8.48;;;;;;;;;;5008387;28;99098;-72
2023/09/16 05:07:44;;;;;;;8.60;7.38;;;;;;;;;;5010777;28;98275;-70
2023/09/16 05:10:12;;;;;;;16.80;8.18;;;;;;;;;;5009722;28;98846;-70
2023/09/16 05:12:39;;;;;;;11.65;8.02;;;;;;;;;;5007760;28;98218;-70
2023/09/16 05:15:06;;;;;;;15.65;8.35;;;;;;;;;;5009917;28;98360;-71
2023/09/16 05:17:33;;;;;;;12.13;8.10;;;;;;;;;;5008510;28;98947;-70
2023/09/16 05:19:59;;;;;;;9.00;7.97;;;;;;;;;;5009449;28;98596;-70
2023/09/16 05:22:26;;;;;;;9.45;8.40;;;;;;;;;;5008731;28;98461;-70
2023/09/16 05:24:52;;;;;;;10.45;8.13;;;;;;;;;;5009399;28;99944;-70
2023/09/16 05:27:21;;;;;;;8.52;7.63;;;;;;;;;;5006012;28;98447;-70
2023/09/16 05:29:54;;;;;;;9.30;8.40;;;;;;;;;;5013257;28;98435;-70
2023/09/16 05:32:21;;;;;;;8.48;7.75;;;;;;;;;;5007454;28;98267;-70
2023/09/16 05:34:48;;;;;;;8.25;7.45;;;;;;;;;;5007732;28;101219;-70
2023/09/16 05:37:15;;;;;;;8.57;7.68;;;;;;;;;;5006837;28;101336;-71
2023/09/16 05:39:42;;;;;;;8.68;7.82;;;;;;;;;;5007550;28;98347;-70
2023/09/16 05:42:09;;;;;;;14.18;8.35;;;;;;;;;;5007134;28;101037;-70
2023/09/16 05:44:36;;;;;;;9.80;8.55;;;;;;;;;;5009363;28;101195;-69
2023/09/16 05:47:02;;;;;;;8.93;8.07;;;;;;;;;;5007644;28;98690;-70
2023/09/16 05:49:30;;;;;;;15.23;8.07;;;;;;;;;;5007209;28;98716;-69
2023/09/16 05:51:57;;;;;;;11.90;8.27;;;;;;;;;;5011332;28;99639;-70
2023/09/16 05:54:25;;;;;;;11.93;8.60;;;;;;;;;;5008066;28;98675;-71
2023/09/16 05:56:52;;;;;;;11.43;8.25;;;;;;;;;;5006735;28;101808;-70
2023/09/16 05:59:19;;;;;;;10.27;8.35;;;;;;;;;;5007900;28;98285;-69
2023/09/16 06:01:47;;;;;;;12.15;8.52;;;;;;;;;;5007151;28;98401;-70
2023/09/16 06:04:14;;;;;;;11.10;8.40;;;;;;;;;;5007357;28;101400;-70
2023/09/16 06:06:41;;;;;;;9.35;8.40;;;;;;;;;;5007677;28;98268;-71
2023/09/16 06:09:07;;;;;;;10.45;9.32;;;;;;;;;;5006481;28;98641;-70
2023/09/16 06:11:34;;;;;;;12.55;9.48;;;;;;;;;;5008479;28;98811;-70
2023/09/16 06:14:00;;;;;;;16.35;9.85;;;;;;;;;;5011999;28;98185;-69
2023/09/16 06:16:27;;;;;;;20.98;9.88;;;;;;;;;;5007552;28;98790;-69
2023/09/16 06:18:53;;;;;;;11.00;9.15;;;;;;;;;;5009179;28;98522;-69
2023/09/16 06:21:22;;;;;;;12.23;9.77;;;;;;;;;;5007113;28;101058;-70
2023/09/16 06:23:49;;;;;;;10.95;9.80;;;;;;;;;;5006320;28;98885;-69
2023/09/16 06:26:15;;;;;;;15.70;9.63;;;;;;;;;;5007897;28;98305;-69
2023/09/16 06:28:42;;;;;;;11.65;10.27;;;;;;;;;;5007597;28;100548;-71
2023/09/16 06:31:09;;;;;;;10.38;9.38;;;;;;;;;;5039860;27;101316;-70
2023/09/16 06:33:40;;;;;;;12.65;10.02;;;;;;;;;;5010687;28;98794;-70
2023/09/16 06:36:07;;;;;;;16.67;10.43;;;;;;;;;;5006930;28;99215;-70
2023/09/16 06:38:33;;;;;;;11.88;9.65;;;;;;;;;;5007694;28;98264;-70
2023/09/16 06:41:00;;;;;;;10.90;9.80;;;;;;;;;;5006937;28;101844;-69
2023/09/16 06:43:27;;;;;;;19.75;10.05;;;;;;;;;;5006482;28;100714;-70
2023/09/16 06:45:55;;;;;;;14.10;10.27;;;;;;;;;;5006545;28;98299;-70
2023/09/16 06:48:21;;;;;;;13.65;9.88;;;;;;;;;;5007783;28;99390;-69
2023/09/16 06:50:50;;;;;;;15.18;10.05;;;;;;;;;;5007108;28;99976;-71
2023/09/16 06:53:16;;;;;;;10.45;9.18;;;;;;;;;;5006562;28;98665;-71
2023/09/16 06:55:43;;;;;;;11.25;10.00;;;;;;;;;;5011616;28;99608;-70
2023/09/16 06:58:09;;;;;;;13.18;9.55;;;;;;;;;;5007538;28;98222;-70
2023/09/16 07:00:36;;;;;;;13.00;10.63;;;;;;;;;;5008059;28;99197;-70
2023/09/16 07:03:03;;;;;;;15.13;10.45;;;;;;;;;;5008153;28;99245;-70
2023/09/16 07:05:30;;;;;;;15.27;11.05;;;;;;;;;;4999185;28;98312;-70
2023/09/16 07:07:58;;;;;;;10.98;9.68;;;;;;;;;;5008318;28;99462;-71
2023/09/16 07:10:25;;;;;;;19.45;9.80;;;;;;;;;;5007276;28;99110;-70
2023/09/16 07:12:51;;;;;;;14.93;9.88;;;;;;;;;;5006759;28;99662;-70
2023/09/16 07:15:19;;;;;;;11.82;9.90;;;;;;;;;;5006585;28;98611;-69
2023/09/16 07:17:45;;;;;;;13.05;9.30;;;;;;;;;;5010997;28;100612;-69
2023/09/16 07:20:12;;;;;;;10.60;9.07;;;;;;;;;;5007127;28;99720;-71
2023/09/16 07:22:41;;;;;;;11.85;10.00;;;;;;;;;;5007947;28;99085;-69
2023/09/16 07:25:08;;;;;;;15.40;9.52;;;;;;;;;;5007636;28;98536;-68
2023/09/16 07:27:34;;;;;;;11.27;9.30;;;;;;;;;;5006669;28;100086;-70
2023/09/16 07:30:01;;;;;;;12.70;10.15;;;;;;;;;;5007433;28;99058;-70
2023/09/16 07:32:28;;;;;;;10.82;9.23;;;;;;;;;;5007349;28;99524;-70
2023/09/16 07:34:55;;;;;;;13.32;9.30;;;;;;;;;;5007209;28;99371;-71
2023/09/16 07:37:21;;;;;;;14.50;9.75;;;;;;;;;;5006807;28;100269;-71
2023/09/16 07:39:50;;;;;;;10.07;9.02;;;;;;;;;;5010158;28;98692;-70
2023/09/16 07:42:16;;;;;;;11.57;9.60;;;;;;;;;;5006359;28;100071;-69
2023/09/16 07:44:43;;;;;;;10.50;9.32;;;;;;;;;;4999495;28;98266;-71
2023/09/16 07:47:09;;;;;;;10.55;9.10;;;;;;;;;;5006641;28;99087;-70
2023/09/16 07:49:36;;;;;;;18.20;8.85;;;;;;;;;;5005715;28;99353;-70
2023/09/16 07:52:02;;;;;;;12.63;9.98;;;;;;;;;;5007543;28;98852;-70
2023/09/16 07:54:29;;;;;;;13.43;9.52;;;;;;;;;;5005627;28;98611;-70
2023/09/16 07:56:55;;;;;;;10.65;9.50;;;;;;;;;;5007612;28;98841;-69
2023/09/16 07:59:22;;;;;;;13.48;8.75;;;;;;;;;;5006897;28;98277;-70
2023/09/16 08:01:48;;;;;;;11.15;8.57;;;;;;;;;;5009207;28;99495;-70
2023/09/16 08:04:15;;;;;;;17.17;9.82;;;;;;;;;;5005749;28;98200;-69
2023/09/16 08:06:42;;;;;;;11.10;9.13;;;;;;;;;;5005277;28;99412;-69
2023/09/16 08:09:08;;;;;;;9.40;8.50;;;;;;;;;;5005417;28;98927;-69
2023/09/16 08:11:35;;;;;;;13.07;8.90;;;;;;;;;;5005785;28;98305;-70
2023/09/16 08:14:01;;;;;;;12.32;8.75;;;;;;;;;;5006295;28;99437;-70
2023/09/16 08:16:28;;;;;;;24.75;9.50;;;;;;;;;;5004848;28;99257;-69
2023/09/16 08:18:54;;;;;;;14.25;8.32;;;;;;;;;;5006729;28;98237;-70
2023/09/16 08:21:21;;;;;;;14.38;9.77;;;;;;;;;;5007228;28;98632;-70
2023/09/16 08:23:48;;;;;;;8.85;8.05;;;;;;;;;;5009345;28;99857;-70
2023/09/16 08:26:15;;;;;;;11.52;9.50;;;;;;;;;;5006461;28;99409;-69
2023/09/16 08:28:42;;;;;;;11.93;8.98;;;;;;;;;;5007215;28;99033;-70
2023/09/16 08:31:08;;;;;;;14.75;8.95;;;;;;;;;;5006915;28;98325;-70
2023/09/16 08:33:35;;;;;;;14.25;8.10;;;;;;;;;;5005120;28;99845;-71
2023/09/16 08:36:01;;;;;;;11.77;9.18;;;;;;;;;;5007463;28;99105;-71
2023/09/16 08:38:28;;;;;;;10.23;8.60;;;;;;;;;;5006099;28;98253;-69
2023/09/16 08:41:11;;;;;;;8.82;7.78;;;;;;;;;;5007144;28;99549;-69
2023/09/16 08:43:39;;;;;;;13.70;9.40;;;;;;;;;;5009459;28;99658;-70
2023/09/16 08:46:08;;;;;;;9.40;8.48;;;;;;;;;;5005629;28;98909;-70
2023/09/16 08:48:37;;;;;;;16.92;9.13;;;;;;;;;;5006576;28;99062;-71
2023/09/16 08:51:05;;;;;;;11.48;7.97;;;;;;;;;;5006306;28;98083;-70
2023/09/16 08:53:35;;;;;;;9.85;8.18;;;;;;;;;;5006134;28;98529;-70
2023/09/16 08:56:02;;;;;;;11.30;7.65;;;;;;;;;;5006633;28;99214;-70
2023/09/16 08:58:34;;;;;;;9.43;7.68;;;;;;;;;;5006187;28;98027;-70
2023/09/16 09:01:02;;;;;;;;;;;;;;;;;;5007540;28;99377;-70
2023/09/16 09:03:30;;;;;;;9.00;7.90;;;;;;;;;;5005478;28;130333;-71
2023/09/16 09:05:56;;;;;;;12.35;7.38;;;;;;;;;;5009656;28;98556;-69
2023/09/16 09:08:23;;;;;;;10.80;8.05;;;;;;;;;;5006271;28;98927;-70
2023/09/16 09:10:50;;;;;;;10.57;7.57;;;;;;;;;;5007172;28;98244;-69
2023/09/16 09:13:18;;;;;;;12.90;8.02;;;;;;;;;;5005458;28;99472;-70
2023/09/16 09:15:47;;;;;;;10.30;7.25;;;;;;;;;;5006757;28;99827;-70
2023/09/16 09:18:16;;;;;;;8.43;7.57;;;;;;;;;;5005834;28;98341;-70
2023/09/16 09:20:42;;;;;;;9.27;7.32;;;;;;;;;;5006292;28;99334;-70
2023/09/16 09:23:09;;;;;;;18.77;8.88;;;;;;;;;;5006673;28;99980;-70
2023/09/16 09:25:41;;;;;;;9.73;7.20;;;;;;;;;;5006512;28;98538;-70
2023/09/16 09:28:08;;;;;;;10.43;7.50;;;;;;;;;;5009611;28;98966;-71
2023/09/16 09:30:34;;;;;;;12.18;8.02;;;;;;;;;;5006131;28;98253;-70
2023/09/16 09:33:01;;;;;;;11.23;8.63;;;;;;;;;;5005886;28;98714;-70
2023/09/16 09:35:29;;;;;;;12.43;8.18;;;;;;;;;;5005966;28;100009;-70
2023/09/16 09:37:56;;;;;;;10.30;7.47;;;;;;;;;;5006481;28;98685;-70
2023/09/16 09:40:23;;;;;;;9.30;8.02;;;;;;;;;;5005549;28;99052;-70
2023/09/16 09:42:55;;;;;;;11.10;8.02;;;;;;;;;;5005528;28;100119;-70
2023/09/16 09:45:23;;;;;;;7.60;6.43;;;;;;;;;;5006072;28;98062;-69
2023/09/16 09:47:50;;;;;;;11.82;7.25;;;;;;;;;;5005660;28;99692;-69
2023/09/16 09:50:17;;;;;;;14.95;8.55;;;;;;;;;;5012180;28;98796;-69
2023/09/16 09:52:47;;;;;;;10.43;7.32;;;;;;;;;;5009780;28;98599;-69
2023/09/16 09:55:17;;;;;;;9.88;7.28;;;;;;;;;;5008772;28;100543;-69
2023/09/16 09:57:45;;;;;;;10.90;7.10;;;;;;;;;;5009724;28;98627;-69
2023/09/16 10:00:16;;;;;;;11.50;6.55;;;;;;;;;;5009969;28;98748;-71
2023/09/16 10:02:43;;;;;;;8.73;7.22;;;;;;;;;;5008884;28;99039;-71
2023/09/16 10:05:22;;;;;;;7.00;6.30;;;;;;;;;;5009706;28;98410;-70
2023/09/16 10:07:50;;;;;;;13.00;6.82;;;;;;;;;;5008863;28;99097;-72
2023/09/16 10:10:21;;;;;;;13.70;5.90;;;;;;;;;;5008366;28;99123;-70
2023/09/16 10:12:52;;;;;;;6.03;5.38;;;;;;;;;;5011831;28;98254;-70
2023/09/16 10:15:23;;;;;;;7.25;6.25;;;;;;;;;;5008448;28;98909;-70
2023/09/16 10:17:53;;;;;;;6.10;5.25;;;;;;;;;;5009333;28;98221;-70
2023/09/16 10:20:21;;;;;;;6.40;5.57;;;;;;;;;;5009099;28;98483;-71
2023/09/16 10:22:47;;;;;;;9.98;6.43;;;;;;;;;;5008757;28;100249;-69
2023/09/16 10:25:16;;;;;;;8.77;5.32;;;;;;;;;;5009172;28;98293;-70
2023/09/16 10:27:48;;;;;;;10.35;5.70;;;;;;;;;;5009401;28;98745;-70
2023/09/16 10:30:15;;;;;;;6.30;5.55;;;;;;;;;;5008055;28;99903;-70
2023/09/16 10:32:42;;;;;;;7.40;4.72;;;;;;;;;;5007151;28;98296;-69
2023/09/16 10:35:09;;;;;;;4.32;4.00;;;;;;;;;;5011019;28;99259;-69
2023/09/16 10:37:36;;;;;;;4.40;3.78;;;;;;;;;;5007289;28;98352;-70
2023/09/16 10:40:04;;;;;;;5.40;3.47;;;;;;;;;;5008250;28;99525;-71
2023/09/16 10:42:35;;;;;;;4.60;4.28;;;;;;;;;;5007474;28;99980;-70
2023/09/16 10:45:02;;;;;;;5.65;4.60;;;;;;;;;;5007760;28;98244;-70
2023/09/16 10:47:30;;;;;;;7.47;4.35;;;;;;;;;;5008062;28;98626;-70
2023/09/16 10:49:57;;;;;;;5.80;4.05;;;;;;;;;;5008569;28;99927;-70
2023/09/16 10:52:38;;;;;;;5.78;3.95;;;;;;;;;;5006121;28;98292;-70
2023/09/16 10:55:08;;;;;;;8.15;3.50;;;;;;;;;;5011558;28;98837;-69
2023/09/16 10:57:36;;;;;;;7.05;3.88;;;;;;;;;;5006023;28;98581;-69
2023/09/16 11:00:03;;;;;;;3.45;3.03;;;;;;;;;;5007180;28;99157;-70
2023/09/16 11:02:34;;;;;;;4.95;3.28;;;;;;;;;;5005674;28;98976;-69
2023/09/16 11:05:01;;;;;;;3.65;3.35;;;;;;;;;;5007128;28;98603;-70
2023/09/16 11:07:27;;;;;;;4.30;2.80;;;;;;;;;;5007273;28;98093;-68
2023/09/16 11:09:55;;;;;;;3.75;3.45;;;;;;;;;;5008300;28;99133;-70
2023/09/16 11:12:22;;;;;;;7.22;3.47;;;;;;;;;;5005037;28;100268;-71
2023/09/16 11:14:49;;;;;;;4.28;3.20;;;;;;;;;;5008955;28;98724;-70
2023/09/16 11:17:16;;;;;;;3.53;3.22;;;;;;;;;;5010015;28;99075;-68
2023/09/16 11:19:42;;;;;;;3.72;3.38;;;;;;;;;;5007071;28;98185;-70
2023/09/16 11:22:10;;;;;;;3.60;3.30;;;;;;;;;;5005887;28;98744;-70
2023/09/16 11:24:37;;;;;;;4.53;3.05;;;;;;;;;;5007794;28;98067;-69
2023/09/16 11:27:04;;;;;;;6.25;3.33;;;;;;;;;;5007046;28;99774;-70
2023/09/16 11:29:31;;;;;;;5.60;2.90;;;;;;;;;;5007076;28;100025;-71
2023/09/16 11:31:58;;;;;;;5.40;3.10;;;;;;;;;;5007393;28;98233;-70
2023/09/16 11:34:26;;;;;;;3.20;2.90;;;;;;;;;;5006583;28;99785;-70
2023/09/16 11:36:53;;;;;;;6.95;3.17;;;;;;;;;;4999573;28;100165;-70
2023/09/16 11:39:21;;;;;;;9.18;3.00;;;;;;;;;;5010801;28;98260;-69
2023/09/16 11:41:48;;;;;;;3.75;3.45;;;;;;;;;;5006960;28;100204;-69
2023/09/16 11:44:15;;;;;;;4.07;2.67;;;;;;;;;;5007170;28;99602;-69
2023/09/16 11:46:41;;;;;;;3.60;3.30;;;;;;;;;;5005439;28;99583;-69
2023/09/16 11:49:08;;;;;;;3.03;2.33;;;;;;;;;;5007076;28;100031;-69
2023/09/16 11:51:38;;;;;;;3.38;2.72;;;;;;;;;;5006711;28;100264;-70
2023/09/16 11:54:04;;;;;;;3.10;2.80;;;;;;;;;;5006188;28;98640;-69
2023/09/16 11:56:34;;;;;;;2.83;2.55;;;;;;;;;;5007013;28;99880;-70
2023/09/16 11:59:03;;;;;;;3.30;2.47;;;;;;;;;;4999919;28;98883;-70
2023/09/16 12:01:33;;;;;;;2.63;2.42;;;;;;;;;;5008884;28;98579;-69
2023/09/16 12:04:03;;;;;;;4.50;2.33;;;;;;;;;;5007343;28;98221;-69
2023/09/16 12:06:35;;;;;;;4.90;2.60;;;;;;;;;;5006004;28;98582;-70
2023/09/16 12:09:03;;;;;;;3.58;2.70;;;;;;;;;;4997755;28;100058;-70
2023/09/16 12:11:31;;;;;;;2.53;2.22;;;;;;;;;;5005407;28;98211;-71
2023/09/16 12:13:58;;;;;;;2.30;2.10;;;;;;;;;;5006581;28;99551;-71
2023/09/16 12:16:25;;;;;;;2.80;2.50;;;;;;;;;;5005704;28;99267;-69
2023/09/16 12:18:52;;;;;;;4.13;2.60;;;;;;;;;;5006879;28;98357;-69
2023/09/16 12:21:19;;;;;;;2.85;2.75;;;;;;;;;;5006687;28;99158;-70
2023/09/16 12:23:45;;;;;;;4.10;2.40;;;;;;;;;;5009495;28;99930;-69
2023/09/16 12:26:12;;;;;;;3.75;2.47;;;;;;;;;;5006639;28;99442;-69
2023/09/16 12:28:39;;;;;;;9.77;2.60;;;;;;;;;;5006509;28;100562;-69
2023/09/16 12:31:11;;;;;;;2.80;2.60;;;;;;;;;;5006716;28;98324;-70
2023/09/16 12:33:46;;;;;;;7.05;2.70;;;;;;;;;;5006539;28;98475;-69
2023/09/16 12:36:15;;;;;;;6.43;2.50;;;;;;;;;;4997391;28;100096;-70
2023/09/16 12:38:42;;;;;;;3.25;2.80;;;;;;;;;;5006780;28;98478;-69
2023/09/16 12:41:09;;;;;;;2.35;2.20;;;;;;;;;;5007112;28;98673;-70
2023/09/16 12:43:36;;;;;;;4.97;2.17;;;;;;;;;;5006046;28;98920;-71
2023/09/16 12:46:04;;;;;;;2.80;2.20;;;;;;;;;;5010081;28;98817;-70
2023/09/16 12:48:31;;;;;;;4.07;2.40;;;;;;;;;;5007377;28;101031;-70
2023/09/16 12:50:59;;;;;;;2.20;2.00;;;;;;;;;;5007092;28;98244;-69
2023/09/16 12:53:29;;;;;;;5.85;2.55;;;;;;;;;;5006364;28;99368;-70
2023/09/16 12:55:56;;;;;;;3.08;2.75;;;;;;;;;;5006253;28;99974;-70
2023/09/16 12:58:25;;;;;;;4.22;2.00;;;;;;;;;;5005335;28;98446;-70
2023/09/16 13:00:51;;;;;;;1.83;1.73;;;;;;;;;;5005486;28;99811;-69
2023/09/16 13:03:20;;;;;;;4.85;2.35;;;;;;;;;;5005664;28;99865;-69
2023/09/16 13:05:51;;;;;;;1.95;1.85;;;;;;;;;;5009064;28;98430;-70
2023/09/16 13:08:19;;;;;;;2.15;1.77;;;;;;;;;;5005462;28;100495;-70
2023/09/16 13:10:49;;;;;;;2.17;1.80;;;;;;;;;;5006333;28;99080;-70
2023/09/16 13:13:16;;;;;;;4.65;1.77;;;;;;;;;;5005106;28;99365;-70
2023/09/16 13:15:43;;;;;;;1.88;1.77;;;;;;;;;;5006327;28;99054;-70
2023/09/16 13:18:10;;;;;;;2.00;1.90;;;;;;;;;;5005936;28;98343;-69
2023/09/16 13:20:40;;;;;;;3.20;1.52;;;;;;;;;;5007389;28;99443;-69
2023/09/16 13:23:07;;;;;;;5.15;2.08;;;;;;;;;;5006070;28;98782;-69
2023/09/16 13:25:36;;;;;;;4.85;1.75;;;;;;;;;;5007997;28;98240;-70
2023/09/16 13:28:06;;;;;;;3.30;1.75;;;;;;;;;;5012667;28;99750;-69
2023/09/16 13:30:33;;;;;;;2.20;2.00;;;;;;;;;;5002377;28;98334;-69
2023/09/16 13:33:05;;;;;;;2.20;2.10;;;;;;;;;;5008641;28;99481;-69
2023/09/16 13:35:35;;;;;;;1.80;1.70;;;;;;;;;;5008647;28;99051;-69
2023/09/16 13:38:02;;;;;;;2.83;1.80;;;;;;;;;;5008840;28;98091;-69
2023/09/16 13:40:29;;;;;;;1.90;1.80;;;;;;;;;;5009062;28;99748;-71
2023/09/16 13:42:56;;;;;;;1.90;1.60;;;;;;;;;;5010342;28;100288;-70
2023/09/16 13:45:23;;;;;;;4.97;2.08;;;;;;;;;;5008966;28;98151;-70
2023/09/16 13:48:08;;;;;;;1.70;1.60;;;;;;;;;;5008511;28;101387;-69
2023/09/16 13:50:37;;;;;;;2.15;1.98;;;;;;;;;;5011459;28;99947;-69
2023/09/16 13:53:04;;;;;;;2.08;1.75;;;;;;;;;;5008229;28;100598;-69
2023/09/16 13:55:30;;;;;;;6.45;1.80;;;;;;;;;;5008264;28;99228;-69
2023/09/16 13:57:57;;;;;;;2.70;2.00;;;;;;;;;;5008696;28;98223;-69
2023/09/16 14:00:24;;;;;;;1.90;1.80;;;;;;;;;;5007640;28;98628;-69
2023/09/16 14:02:51;;;;;;;2.97;2.13;;;;;;;;;;5008890;28;98876;-70
2023/09/16 14:05:18;;;;;;;2.25;1.70;;;;;;;;;;5008604;28;98726;-69
2023/09/16 14:07:44;;;;;;;6.53;2.00;;;;;;;;;;5040730;27;99423;-70
2023/09/16 14:10:10;;;;;;;2.35;1.75;;;;;;;;;;5008834;28;100479;-70
2023/09/16 14:12:37;;;;;;;2.05;1.90;;;;;;;;;;5011550;28;98308;-70
2023/09/16 14:15:04;;;;;;;3.30;1.95;;;;;;;;;;5007856;28;99948;-70
2023/09/16 14:17:31;;;;;;;3.03;1.80;;;;;;;;;;5008249;28;98251;-69
2023/09/16 14:19:57;;;;;;;3.70;2.28;;;;;;;;;;5009717;28;99548;-71
2023/09/16 14:22:29;;;;;;;3.20;2.08;;;;;;;;;;5007507;28;99900;-70
2023/09/16 14:24:56;;;;;;;2.08;1.83;;;;;;;;;;5008925;28;98379;-70
2023/09/16 14:27:22;;;;;;;3.65;2.00;;;;;;;;;;5007953;28;99458;-70
2023/09/16 14:29:52;;;;;;;1.90;1.80;;;;;;;;;;5007763;28;99963;-69
2023/09/16 14:32:19;;;;;;;4.05;2.13;;;;;;;;;;5008468;28;98181;-70
2023/09/16 14:34:45;;;;;;;2.15;1.95;;;;;;;;;;5010864;28;98565;-71
2023/09/16 14:37:12;;;;;;;2.08;1.73;;;;;;;;;;5007767;28;98239;-71
2023/09/16 14:39:38;;;;;;;2.00;1.90;;;;;;;;;;5007893;28;99280;-70